Time;durP1;ratioP1;P1;durP2;ratioP2;P2;SDS_P1;SDS_P2;PMS_P1;PMS_P2;Temp;Humidity;BMP_temperature;BMP_pressure;BME280_temperature;BME280_humidity;BME280_pressure;Samples;Min_cycle;Max_cycle;Signal;HPM_P1;HPM_P2
2022/11/25 00:02:33;;;;;;;32.2;21.8;;;;;;;1.8;90.6;98730;;;;
2022/11/25 00:12:33;;;;;;;39.5;23.4;;;;;;;1.8;90.5;98730;;;;
2022/11/25 00:22:33;;;;;;;39.5;23.4;;;;;;;1.9;90.3;98740;;;;
2022/11/25 00:33:33;;;;;;;31.3;19.4;;;;;;;2;90.6;98740;;;;
2022/11/25 00:44:34;;;;;;;31.3;19.4;;;;;;;2.1;90.5;98740;;;;
2022/11/25 00:54:35;;;;;;;31.3;19.4;;;;;;;2.1;90.4;98750;;;;
2022/11/25 01:05:33;;;;;;;28.8;16.8;;;;;;;2.3;90.2;98750;;;;
2022/11/25 01:15:33;;;;;;;28.8;16.8;;;;;;;2.5;90.1;98750;;;;
2022/11/25 01:26:33;;;;;;;28.8;16.8;;;;;;;2.6;89.8;98750;;;;
2022/11/25 01:36:33;;;;;;;28.3;15.9;;;;;;;2.7;89.6;98760;;;;
2022/11/25 01:47:33;;;;;;;28.3;15.9;;;;;;;2.7;89.1;98760;;;;
2022/11/25 01:57:33;;;;;;;28.3;15.9;;;;;;;2.6;88.9;98750;;;;
2022/11/25 02:07:33;;;;;;;25.7;15.1;;;;;;;2.6;88.8;98740;;;;
2022/11/25 02:17:33;;;;;;;25.7;15.1;;;;;;;2.4;88.4;98740;;;;
2022/11/25 02:28:33;;;;;;;25.7;15.1;;;;;;;2.3;88.6;98740;;;;
2022/11/25 02:38:33;;;;;;;16.9;11.1;;;;;;;2.4;89;98740;;;;
2022/11/25 02:49:33;;;;;;;16.9;11.1;;;;;;;2.6;89.1;98750;;;;
2022/11/25 03:00:33;;;;;;;16.9;11.1;;;;;;;2.6;88.9;98760;;;;
2022/11/25 03:10:34;;;;;;;19.5;12.1;;;;;;;2.7;88.9;98760;;;;
2022/11/25 03:21:33;;;;;;;19.5;12.1;;;;;;;2.7;88.6;98760;;;;
2022/11/25 03:31:33;;;;;;;19.5;12.1;;;;;;;2.7;88.5;98770;;;;
2022/11/25 03:42:33;;;;;;;23.2;16.1;;;;;;;2.7;88.4;98780;;;;
2022/11/25 03:52:33;;;;;;;23.2;16.1;;;;;;;2.9;88.4;98790;;;;
2022/11/25 04:03:33;;;;;;;20.5;12.2;;;;;;;2.9;88.3;98790;;;;
2022/11/25 04:13:33;;;;;;;20.5;12.2;;;;;;;2.9;88.2;98790;;;;
2022/11/25 04:23:33;;;;;;;20.5;12.2;;;;;;;2.9;88;98800;;;;
2022/11/25 04:33:33;;;;;;;19.1;12.4;;;;;;;2.9;88.3;98800;;;;
2022/11/25 04:44:33;;;;;;;19.1;12.4;;;;;;;2.9;88.4;98800;;;;
2022/11/25 04:55:33;;;;;;;19.1;12.4;;;;;;;2.8;89.1;98810;;;;
2022/11/25 05:06:34;;;;;;;21.2;12;;;;;;;2.8;89.5;98820;;;;
2022/11/25 05:17:33;;;;;;;21.2;12;;;;;;;3;89.4;98830;;;;
2022/11/25 05:28:33;;;;;;;21.2;12;;;;;;;2.8;89.4;98840;;;;
2022/11/25 05:39:33;;;;;;;22.9;14.4;;;;;;;2.9;89.8;98850;;;;
2022/11/25 05:50:33;;;;;;;22.9;14.4;;;;;;;2.9;90.2;98860;;;;
2022/11/25 06:01:33;;;;;;;22.9;14.4;;;;;;;3;90.2;98870;;;;
2022/11/25 06:11:33;;;;;;;27.8;18.6;;;;;;;3.1;90.2;98880;;;;
2022/11/25 06:21:33;;;;;;;27.8;18.6;;;;;;;3.1;90.1;98880;;;;
2022/11/25 06:31:34;;;;;;;27.8;18.6;;;;;;;3.2;90.2;98890;;;;
2022/11/25 06:42:33;;;;;;;32.8;21.9;;;;;;;3.2;90.2;98890;;;;
2022/11/25 06:52:33;;;;;;;32.8;21.9;;;;;;;3.3;90.5;98890;;;;
2022/11/25 07:02:34;;;;;;;43.1;26.3;;;;;;;3.4;90.7;98900;;;;
2022/11/25 07:13:33;;;;;;;43.1;26.3;;;;;;;3.6;90.8;98900;;;;
2022/11/25 07:23:33;;;;;;;43.1;26.3;;;;;;;3.6;90.7;98900;;;;
2022/11/25 07:34:33;;;;;;;50;31.9;;;;;;;3.6;90.7;98910;;;;
2022/11/25 07:45:34;;;;;;;50;31.9;;;;;;;3.7;90.9;98910;;;;
2022/11/25 07:55:33;;;;;;;50;31.9;;;;;;;3.8;90.7;98930;;;;
2022/11/25 08:06:34;;;;;;;45;30.5;;;;;;;3.9;90.4;98940;;;;
2022/11/25 08:16:34;;;;;;;45;30.5;;;;;;;4.2;90.2;98950;;;;
2022/11/25 08:27:33;;;;;;;45;30.5;;;;;;;4.2;89.8;98950;;;;
2022/11/25 08:38:33;;;;;;;40.1;27.1;;;;;;;4.2;89.3;98960;;;;
2022/11/25 08:48:34;;;;;;;40.1;27.1;;;;;;;4.4;89.3;98960;;;;
2022/11/25 08:59:34;;;;;;;40.1;27.1;;;;;;;4.5;89;98970;;;;
2022/11/25 09:10:33;;;;;;;33.9;24.5;;;;;;;4.8;89;98970;;;;
2022/11/25 09:20:33;;;;;;;33.9;24.5;;;;;;;4.9;88.7;98970;;;;
2022/11/25 09:30:34;;;;;;;33.9;24.5;;;;;;;5.1;88.6;98970;;;;
2022/11/25 09:52:34;;;;;;;37.6;29.7;;;;;;;5.7;87.8;98980;;;;
2022/11/25 10:03:34;;;;;;;41.7;35.8;;;;;;;6;87.5;98980;;;;
2022/11/25 10:14:34;;;;;;;41.7;35.8;;;;;;;6.2;86;98980;;;;
2022/11/25 10:24:34;;;;;;;41.7;35.8;;;;;;;6.5;86.2;98980;;;;
2022/11/25 10:35:34;;;;;;;51.2;39.3;;;;;;;6.5;84.8;98990;;;;
2022/11/25 10:45:34;;;;;;;51.2;39.3;;;;;;;6.7;84.2;98990;;;;
2022/11/25 10:56:34;;;;;;;51.2;39.3;;;;;;;6.7;84.4;98990;;;;
2022/11/25 11:07:34;;;;;;;54.7;44.5;;;;;;;6.7;84.3;98990;;;;
2022/11/25 11:17:33;;;;;;;54.7;44.5;;;;;;;6.9;84.4;98990;;;;
2022/11/25 11:27:34;;;;;;;54.7;44.5;;;;;;;7.2;84.1;98990;;;;
2022/11/25 11:38:34;;;;;;;54.9;46.6;;;;;;;7.4;84;98990;;;;
2022/11/25 11:48:34;;;;;;;54.9;46.6;;;;;;;7.7;83;98990;;;;
2022/11/25 11:59:34;;;;;;;54.9;46.6;;;;;;;7.8;83.2;98990;;;;
2022/11/25 12:09:34;;;;;;;49.6;42.7;;;;;;;7.3;83.3;98990;;;;
2022/11/25 12:20:33;;;;;;;49.6;42.7;;;;;;;7.4;83.5;99000;;;;
2022/11/25 12:30:34;;;;;;;49.6;42.7;;;;;;;7.5;83.4;99000;;;;
2022/11/25 12:41:34;;;;;;;62.1;51.5;;;;;;;7.5;82.7;99010;;;;
2022/11/25 12:51:34;;;;;;;62.1;51.5;;;;;;;7.7;82.5;99000;;;;
2022/11/25 13:01:34;;;;;;;44.9;37.2;;;;;;;7.7;82.3;99000;;;;
2022/11/25 13:12:33;;;;;;;44.9;37.2;;;;;;;7.7;82.4;99000;;;;
2022/11/25 13:22:34;;;;;;;44.9;37.2;;;;;;;7.5;82.3;99000;;;;
2022/11/25 13:32:33;;;;;;;44.8;37.2;;;;;;;7.6;82.8;99010;;;;
2022/11/25 13:43:35;;;;;;;44.8;37.2;;;;;;;7.6;82.9;99010;;;;
2022/11/25 13:54:34;;;;;;;44.8;37.2;;;;;;;7.5;82.6;99020;;;;
2022/11/25 14:05:34;;;;;;;51.5;44.7;;;;;;;7.3;82.6;99020;;;;
2022/11/25 14:16:34;;;;;;;51.5;44.7;;;;;;;7.2;82.9;99030;;;;
2022/11/25 14:27:34;;;;;;;51.5;44.7;;;;;;;7.1;83.2;99030;;;;
2022/11/25 14:38:34;;;;;;;40.6;30.9;;;;;;;6.9;83.7;99040;;;;
2022/11/25 14:49:34;;;;;;;40.6;30.9;;;;;;;6.8;84.2;99040;;;;
2022/11/25 15:00:34;;;;;;;40.6;30.9;;;;;;;6.7;84.5;99040;;;;
2022/11/25 15:11:34;;;;;;;39.3;33.6;;;;;;;6.7;84.9;99050;;;;
2022/11/25 15:22:34;;;;;;;39.3;33.6;;;;;;;6.6;85;99060;;;;
2022/11/25 15:32:36;;;;;;;45.8;38.2;;;;;;;6.4;85.7;99060;;;;
2022/11/25 15:42:34;;;;;;;45.8;38.2;;;;;;;6.4;85.6;99060;;;;
2022/11/25 15:53:36;;;;;;;45.8;38.2;;;;;;;6.3;85.6;99060;;;;
2022/11/25 16:03:34;;;;;;;34.6;29.1;;;;;;;6.3;85.8;99060;;;;
2022/11/25 16:13:34;;;;;;;34.6;29.1;;;;;;;6.3;86;99070;;;;
2022/11/25 16:23:34;;;;;;;34.6;29.1;;;;;;;6.2;86;99080;;;;
2022/11/25 16:34:34;;;;;;;41.8;34.7;;;;;;;6;86.1;99080;;;;
2022/11/25 16:45:34;;;;;;;41.8;34.7;;;;;;;6;86.4;99090;;;;
2022/11/25 16:55:34;;;;;;;41.8;34.7;;;;;;;5.8;86.3;99080;;;;
2022/11/25 17:05:34;;;;;;;36.3;32.4;;;;;;;5.6;87.2;99090;;;;
2022/11/25 17:15:34;;;;;;;36.3;32.4;;;;;;;5.6;87.4;99100;;;;
2022/11/25 17:26:34;;;;;;;36.3;32.4;;;;;;;5.7;87.3;99110;;;;
2022/11/25 17:36:34;;;;;;;60.9;46.1;;;;;;;5.8;86.9;99100;;;;
2022/11/25 17:47:34;;;;;;;60.9;46.1;;;;;;;5.8;86.6;99110;;;;
2022/11/25 17:57:34;;;;;;;60.9;46.1;;;;;;;5.8;86.3;99120;;;;
2022/11/25 18:07:34;;;;;;;36.9;26.7;;;;;;;5.6;86.1;99140;;;;
2022/11/25 18:18:34;;;;;;;36.9;26.7;;;;;;;5.4;86.1;99130;;;;
2022/11/25 18:29:34;;;;;;;36.9;26.7;;;;;;;5.4;86.2;99140;;;;
2022/11/25 18:40:34;;;;;;;67.4;50;;;;;;;5.3;87.1;99160;;;;
2022/11/25 18:51:34;;;;;;;67.4;50;;;;;;;5.3;87.5;99160;;;;
2022/11/25 19:02:36;;;;;;;59.6;48.7;;;;;;;5.2;88;99170;;;;
2022/11/25 19:12:34;;;;;;;59.6;48.7;;;;;;;5.3;88.2;99180;;;;
2022/11/25 19:23:34;;;;;;;59.6;48.7;;;;;;;5.4;88.3;99190;;;;
2022/11/25 19:33:34;;;;;;;57.5;47.9;;;;;;;5.5;88.5;99200;;;;
2022/11/25 19:43:34;;;;;;;57.5;47.9;;;;;;;5.6;88.4;99210;;;;
2022/11/25 19:53:34;;;;;;;57.5;47.9;;;;;;;5.5;88.3;99200;;;;
2022/11/25 20:04:34;;;;;;;56.9;43.2;;;;;;;5.5;88.5;99200;;;;
2022/11/25 20:15:34;;;;;;;56.9;43.2;;;;;;;5.6;88.6;99220;;;;
2022/11/25 20:26:34;;;;;;;56.9;43.2;;;;;;;5.6;88.7;99230;;;;
2022/11/25 20:36:34;;;;;;;38.7;30.1;;;;;;;5.7;88.7;99230;;;;
2022/11/25 20:47:34;;;;;;;38.7;30.1;;;;;;;5.5;89.2;99240;;;;
2022/11/25 20:57:35;;;;;;;38.7;30.1;;;;;;;5.5;88.9;99240;;;;
2022/11/25 21:07:34;;;;;;;30.2;23.8;;;;;;;5.5;88.7;99240;;;;
2022/11/25 21:18:34;;;;;;;30.2;23.8;;;;;;;5.5;88.8;99250;;;;
2022/11/25 21:28:34;;;;;;;30.2;23.8;;;;;;;5.5;88.6;99250;;;;
2022/11/25 21:38:34;;;;;;;28.1;22.4;;;;;;;5.4;88.3;99250;;;;
2022/11/25 21:49:34;;;;;;;28.1;22.4;;;;;;;5.4;87.9;99260;;;;
2022/11/25 21:59:34;;;;;;;28.1;22.4;;;;;;;5.3;87.3;99260;;;;
2022/11/25 22:10:34;;;;;;;24.9;19.2;;;;;;;5.2;87.5;99260;;;;
2022/11/25 22:20:35;;;;;;;24.9;19.2;;;;;;;5.2;87.5;99270;;;;
2022/11/25 22:30:34;;;;;;;23.8;17.8;;;;;;;5.3;87.3;99270;;;;
2022/11/25 22:41:34;;;;;;;23.8;17.8;;;;;;;5.4;87.2;99270;;;;
2022/11/25 22:51:34;;;;;;;23.8;17.8;;;;;;;5.5;87;99280;;;;
2022/11/25 23:01:34;;;;;;;25.1;19.5;;;;;;;5.6;86.9;99290;;;;
2022/11/25 23:11:34;;;;;;;25.1;19.5;;;;;;;5.6;86.8;99300;;;;
2022/11/25 23:22:34;;;;;;;25.1;19.5;;;;;;;5.5;86.8;99320;;;;
2022/11/25 23:33:35;;;;;;;42.9;31.7;;;;;;;5.4;86.7;99320;;;;
2022/11/25 23:43:34;;;;;;;42.9;31.7;;;;;;;5.2;86.6;99320;;;;
2022/11/25 23:53:34;;;;;;;42.9;31.7;;;;;;;5.3;87.1;99320;;;;
